Time;durP1;ratioP1;P1;durP2;ratioP2;P2;SDS_P1;SDS_P2;PMS_P1;PMS_P2;Temp;Humidity;BMP_temperature;BMP_pressure;BME280_temperature;BME280_humidity;BME280_pressure;Samples;Min_cycle;Max_cycle;Signal;HPM_P1;HPM_P2
2024/02/07 00:02:09;;;;;;;5.33;1.40;;;;;;;8.63;58.69;97263.69;6333044;28;20190;-55
2024/02/07 00:05:11;;;;;;;6.93;1.77;;;;;;;8.52;59.94;97258.22;6331090;28;20587;-56
2024/02/07 00:08:14;;;;;;;3.77;1.23;;;;;;;8.33;61.21;97253.31;6312073;28;20288;-55
2024/02/07 00:11:16;;;;;;;6.03;1.53;;;;;;;8.38;59.75;97248.94;6330468;28;20197;-57
2024/02/07 00:14:18;;;;;;;5.40;1.33;;;;;;;8.55;59.64;97248.94;6332546;28;20194;-55
2024/02/07 00:17:23;;;;;;;2.87;1.33;;;;;;;8.33;60.05;97248.00;6333302;28;20201;-56
2024/02/07 00:20:25;;;;;;;5.23;1.80;;;;;;;8.32;60.18;97249.03;6331742;28;20585;-55
2024/02/07 00:23:27;;;;;;;3.83;1.27;;;;;;;8.61;59.26;97233.91;6337285;28;20221;-54
2024/02/07 00:26:30;;;;;;;8.53;1.50;;;;;;;8.50;58.84;97215.16;6334757;28;20683;-57
2024/02/07 00:29:32;;;;;;;4.03;1.50;;;;;;;8.65;58.58;97233.19;6335494;28;20234;-55
2024/02/07 00:32:34;;;;;;;5.60;1.37;;;;;;;8.49;60.23;97232.13;6319474;28;20197;-56
2024/02/07 00:35:36;;;;;;;5.93;1.60;;;;;;;8.92;57.87;97230.72;6333770;28;20212;-56
2024/02/07 00:38:39;;;;;;;7.07;2.07;;;;;;;8.88;57.92;97218.97;6338217;28;20490;-56
2024/02/07 00:41:41;;;;;;;2.77;1.13;;;;;;;8.83;58.11;97218.09;6327301;28;20204;-56
2024/02/07 00:44:43;;;;;;;3.47;1.27;;;;;;;8.50;60.02;97219.66;6333200;28;20688;-57
2024/02/07 00:47:46;;;;;;;5.20;1.43;;;;;;;8.49;59.56;97212.75;6329345;28;20190;-56
2024/02/07 00:50:48;;;;;;;4.93;1.57;;;;;;;8.74;58.30;97218.47;6333127;28;20221;-58
2024/02/07 00:53:50;;;;;;;5.30;1.73;;;;;;;8.81;58.77;97214.84;6345886;27;20298;-56
2024/02/07 00:56:54;;;;;;;4.90;1.33;;;;;;;9.06;56.89;97209.91;6331826;28;20214;-57
2024/02/07 00:59:56;;;;;;;6.60;1.63;;;;;;;8.83;58.19;97202.16;6314227;28;20577;-57
2024/02/07 01:02:58;;;;;;;3.70;1.13;;;;;;;8.87;58.71;97208.59;6340376;28;20583;-56
2024/02/07 01:06:01;;;;;;;4.60;1.70;;;;;;;8.81;58.53;97215.66;6329009;28;20189;-57
2024/02/07 01:09:03;;;;;;;4.70;1.30;;;;;;;9.19;57.14;97208.78;6310187;28;20236;-57
2024/02/07 01:12:05;;;;;;;4.03;1.20;;;;;;;8.92;59.15;97212.13;6334684;28;20192;-56
2024/02/07 01:15:08;;;;;;;4.17;1.50;;;;;;;9.18;57.29;97196.56;6332015;28;20190;-57
2024/02/07 01:18:10;;;;;;;4.40;1.63;;;;;;;9.18;56.84;97191.25;6324051;28;20205;-56
2024/02/07 01:21:12;;;;;;;3.57;1.30;;;;;;;8.95;58.74;97208.97;6329701;28;20704;-55
2024/02/07 01:24:15;;;;;;;5.93;1.57;;;;;;;8.87;58.26;97197.97;6328436;28;20189;-58
2024/02/07 01:27:18;;;;;;;3.70;1.30;;;;;;;8.81;58.92;97175.81;6339034;28;20193;-56
2024/02/07 01:30:20;;;;;;;4.90;1.30;;;;;;;9.09;57.86;97203.31;6329854;28;20296;-58
2024/02/07 01:33:22;;;;;;;2.53;1.07;;;;;;;9.29;56.72;97190.31;6336156;28;20200;-57
2024/02/07 01:36:24;;;;;;;5.90;1.70;;;;;;;9.35;57.18;97197.31;6333950;28;20201;-57
2024/02/07 01:39:26;;;;;;;4.27;1.97;;;;;;;9.36;56.92;97179.50;6322837;28;20802;-57
2024/02/07 01:42:31;;;;;;;2.13;1.20;;;;;;;9.29;56.09;97163.75;6330835;28;20197;-57
2024/02/07 01:45:34;;;;;;;5.33;1.10;;;;;;;9.28;57.14;97183.41;6316739;28;20571;-56
2024/02/07 01:48:37;;;;;;;5.03;1.10;;;;;;;9.09;58.64;97182.06;6327385;28;20243;-57
2024/02/07 01:51:39;;;;;;;4.43;1.33;;;;;;;8.91;58.86;97194.56;6332213;28;20228;-54
2024/02/07 01:54:41;;;;;;;4.03;1.20;;;;;;;9.11;58.08;97191.38;6327896;28;20674;-57
2024/02/07 01:57:44;;;;;;;3.43;1.20;;;;;;;9.15;57.74;97179.22;6327305;28;20237;-58
2024/02/07 02:00:48;;;;;;;2.20;1.10;;;;;;;8.96;60.07;97201.81;6327037;28;20621;-57
2024/02/07 02:03:51;;;;;;;3.20;1.27;;;;;;;8.90;60.11;97200.91;6306852;28;20202;-56
2024/02/07 02:06:53;;;;;;;5.60;1.60;;;;;;;8.94;58.80;97190.63;6331935;28;20200;-55
2024/02/07 02:09:55;;;;;;;3.60;1.23;;;;;;;9.02;59.34;97190.22;6334390;28;20735;-57
2024/02/07 02:12:58;;;;;;;4.00;1.50;;;;;;;9.03;58.51;97194.47;6319562;28;20193;-56
2024/02/07 02:16:00;;;;;;;2.53;1.27;;;;;;;9.14;58.15;97192.78;6326027;28;20208;-57
2024/02/07 02:19:02;;;;;;;5.10;1.43;;;;;;;9.13;57.16;97189.31;6333237;28;20651;-54
2024/02/07 02:22:28;;;;;;;2.30;1.47;;;;;;;9.16;58.76;97182.69;6324090;28;20188;-57
2024/02/07 02:25:36;;;;;;;3.57;1.43;;;;;;;8.96;58.67;97178.69;6317487;28;20204;-57
2024/02/07 02:28:52;;;;;;;5.13;1.50;;;;;;;9.07;58.95;97178.88;6320335;28;20206;-56
2024/02/07 02:31:56;;;;;;;6.97;1.73;;;;;;;8.83;59.16;97155.16;6328587;28;20198;-56
2024/02/07 02:34:59;;;;;;;4.00;1.23;;;;;;;8.92;59.04;97185.56;6336596;28;20197;-57
2024/02/07 02:38:02;;;;;;;4.43;1.30;;;;;;;9.03;58.56;97163.41;6312905;28;20918;-56
2024/02/07 02:41:08;;;;;;;6.13;1.30;;;;;;;9.02;58.35;97148.53;6336241;28;20291;-56
2024/02/07 02:44:12;;;;;;;2.80;1.37;;;;;;;8.89;59.74;97137.44;6332871;28;20190;-54
2024/02/07 02:47:14;;;;;;;3.93;1.30;;;;;;;8.99;59.18;97133.06;6328298;28;20561;-56
2024/02/07 02:50:17;;;;;;;2.13;1.27;;;;;;;9.12;58.76;97128.44;6311826;28;20223;-57
2024/02/07 02:53:19;;;;;;;3.40;1.23;;;;;;;9.11;58.66;97113.53;6332921;28;20630;-56
2024/02/07 02:56:21;;;;;;;3.57;1.40;;;;;;;9.10;59.15;97122.56;6333470;28;20244;-56
2024/02/07 02:59:25;;;;;;;4.73;1.20;;;;;;;9.10;58.64;97109.28;6333685;28;20200;-56
2024/02/07 03:02:27;;;;;;;5.93;1.43;;;;;;;9.04;59.19;97097.78;6312120;28;20202;-56
2024/02/07 03:08:53;;;;;;;4.00;1.17;;;;;;;9.15;58.36;97094.19;6335373;28;20281;-57
2024/02/07 03:11:57;;;;;;;1.87;0.90;;;;;;;9.04;59.04;97111.88;6337536;28;20209;-57
2024/02/07 03:14:59;;;;;;;1.87;1.20;;;;;;;9.27;58.24;97112.69;6339116;28;20216;-56
2024/02/07 03:18:01;;;;;;;6.80;1.10;;;;;;;8.69;60.27;97060.94;6326505;28;20315;-57
2024/02/07 03:21:05;;;;;;;3.33;1.00;;;;;;;9.16;58.30;97079.88;6328047;28;20882;-57
2024/02/07 03:24:09;;;;;;;3.20;1.33;;;;;;;9.20;57.76;97094.25;6320618;28;20205;-54
2024/02/07 03:27:11;;;;;;;3.73;0.93;;;;;;;9.03;59.90;97104.16;6341267;28;20194;-57
2024/02/07 03:30:16;;;;;;;3.20;0.90;;;;;;;9.11;58.54;97103.72;6339730;28;20344;-57
2024/02/07 03:33:19;;;;;;;2.03;1.20;;;;;;;9.24;58.51;97105.22;6326586;28;20190;-56
2024/02/07 03:36:21;;;;;;;3.00;0.80;;;;;;;9.24;57.80;97098.03;6326045;28;20202;-58
2024/02/07 03:39:24;;;;;;;1.43;0.93;;;;;;;9.14;58.06;97097.91;6330082;28;20193;-55
2024/02/07 03:42:26;;;;;;;3.67;1.10;;;;;;;9.13;58.38;97098.16;6336805;28;20189;-57
2024/02/07 03:45:32;;;;;;;2.53;1.00;;;;;;;9.22;57.21;97080.75;6352804;27;20197;-57
2024/02/07 03:48:37;;;;;;;1.87;0.70;;;;;;;9.44;56.17;97088.69;6329378;28;20202;-57
2024/02/07 03:51:43;;;;;;;1.10;0.80;;;;;;;9.33;57.61;97097.63;6331169;28;20198;-57
2024/02/07 03:54:51;;;;;;;3.63;1.33;;;;;;;9.27;57.95;97104.72;6331625;28;20582;-57
2024/02/07 03:57:54;;;;;;;2.23;1.23;;;;;;;9.24;57.30;97107.88;6331661;28;20580;-56
2024/02/07 04:00:56;;;;;;;3.43;1.43;;;;;;;9.30;57.70;97080.28;6327556;28;20197;-57
2024/02/07 04:03:58;;;;;;;2.13;1.17;;;;;;;9.38;56.35;97076.41;6334159;28;20197;-57
2024/02/07 04:07:01;;;;;;;1.60;0.97;;;;;;;9.33;57.10;97077.16;6340103;28;20193;-57
2024/02/07 04:10:09;;;;;;;7.13;1.37;;;;;;;9.40;56.24;97077.75;6335019;28;20205;-56
2024/02/07 05:16:34;;;;;;;3.93;1.40;;;;;;;8.71;58.58;96995.88;6336805;28;20648;-56
2024/02/07 05:19:36;;;;;;;4.47;1.07;;;;;;;9.10;57.32;97003.78;6326964;28;20574;-53
2024/02/07 05:22:39;;;;;;;2.50;1.00;;;;;;;9.14;57.01;96990.81;6329154;28;20654;-57
2024/02/07 05:25:44;;;;;;;3.73;1.00;;;;;;;9.08;58.43;96983.84;6333358;28;20194;-56
2024/02/07 05:28:48;;;;;;;1.87;0.93;;;;;;;8.97;58.94;96978.44;6334507;28;20590;-58
2024/02/07 05:31:50;;;;;;;4.50;1.37;;;;;;;9.04;58.50;96986.19;6334879;28;20565;-56
2024/02/07 05:34:56;;;;;;;2.70;1.00;;;;;;;9.26;58.18;96981.66;6330045;28;20194;-55
2024/02/07 05:37:59;;;;;;;5.13;1.00;;;;;;;9.33;57.52;96988.63;6339919;28;20767;-56
2024/02/07 05:41:01;;;;;;;2.37;1.10;;;;;;;9.30;58.33;96966.81;6325543;28;20186;-57
2024/02/07 05:44:03;;;;;;;4.87;1.20;;;;;;;9.21;58.33;96955.03;6316011;28;20272;-57
2024/02/07 05:47:05;;;;;;;5.30;1.20;;;;;;;9.19;59.49;96961.66;6314578;28;20215;-56
2024/02/07 05:50:09;;;;;;;3.73;1.23;;;;;;;9.37;58.40;96948.00;6320676;28;20212;-56
2024/02/07 05:53:11;;;;;;;3.33;1.00;;;;;;;9.49;57.88;96953.97;6339604;28;20691;-56
2024/02/07 05:56:15;;;;;;;6.40;1.07;;;;;;;9.32;59.63;96963.91;6330079;28;20232;-57
2024/02/07 05:59:19;;;;;;;3.43;1.10;;;;;;;9.04;61.37;96968.41;6326774;28;20200;-55
2024/02/07 06:02:21;;;;;;;3.37;0.80;;;;;;;8.92;61.87;96958.97;6338806;28;20331;-57
2024/02/07 06:05:23;;;;;;;1.97;1.07;;;;;;;8.80;62.26;96975.03;6330833;28;20616;-55
2024/02/07 06:08:25;;;;;;;2.77;1.00;;;;;;;8.62;62.56;96970.84;6336752;28;20189;-56
2024/02/07 06:11:31;;;;;;;1.37;1.00;;;;;;;8.86;61.69;96971.38;6316212;28;20213;-53
2024/02/07 06:14:34;;;;;;;5.50;1.10;;;;;;;9.10;61.09;96963.94;6330894;28;20697;-57
2024/02/07 06:17:38;;;;;;;4.53;1.10;;;;;;;9.26;59.90;96947.13;6320115;28;20192;-55
2024/02/07 06:20:40;;;;;;;2.90;1.03;;;;;;;9.29;59.84;96964.41;6329156;28;20190;-57
2024/02/07 06:24:21;;;;;;;2.70;1.47;;;;;;;9.31;59.99;96972.94;3067230;23;20240;-57
2024/02/07 06:27:41;;;;;;;1.50;0.90;;;;;;;9.43;59.32;96941.69;6244879;28;20200;-56
2024/02/07 06:30:44;;;;;;;1.17;0.70;;;;;;;9.50;59.56;96960.06;6249601;28;20714;-60
2024/02/07 06:34:01;;;;;;;2.17;0.90;;;;;;;9.41;59.88;96937.66;6258831;28;20202;-57
2024/02/07 06:37:21;;;;;;;3.07;0.80;;;;;;;9.37;60.05;96963.16;6248370;28;20743;-57
2024/02/07 06:40:23;;;;;;;3.80;0.80;;;;;;;9.56;58.85;96959.88;6250156;28;20462;-53
2024/02/07 06:43:27;;;;;;;4.27;1.20;;;;;;;9.66;58.28;96937.09;6240046;28;20198;-53
2024/02/07 06:46:32;;;;;;;1.20;0.60;;;;;;;9.71;58.59;96961.06;6253247;28;20666;-55
2024/02/07 06:49:36;;;;;;;2.13;0.90;;;;;;;9.91;57.29;96933.81;6262886;28;20203;-54
2024/02/07 06:52:40;;;;;;;3.20;0.80;;;;;;;10.00;57.01;96950.88;6261457;28;20858;-59
2024/02/07 06:55:42;;;;;;;5.20;0.90;;;;;;;9.83;57.40;96935.88;6260796;28;20274;-57
2024/02/07 06:58:45;;;;;;;1.70;0.90;;;;;;;9.93;57.96;96942.34;6262906;28;20660;-56
2024/02/07 07:01:47;;;;;;;2.30;0.70;;;;;;;10.01;57.80;96923.25;6265883;28;20183;-57
2024/02/07 07:04:50;;;;;;;1.57;0.60;;;;;;;10.01;57.94;96924.03;6262245;28;20252;-56
2024/02/07 07:07:52;;;;;;;1.97;0.60;;;;;;;10.00;56.96;96929.59;6253368;28;20667;-56
2024/02/07 07:10:55;;;;;;;2.20;0.80;;;;;;;10.16;56.22;96909.22;6266057;28;20238;-54
2024/02/07 07:13:57;;;;;;;2.70;0.80;;;;;;;10.08;58.27;96915.84;6259899;28;20197;-56
2024/02/07 07:17:04;;;;;;;2.27;0.60;;;;;;;9.98;57.81;96915.75;6261865;28;20801;-56
2024/02/07 07:20:07;;;;;;;2.47;0.80;;;;;;;10.08;57.58;96900.66;6254576;28;20186;-55
2024/02/07 07:23:09;;;;;;;2.10;0.80;;;;;;;10.27;56.37;96905.59;6261314;28;20582;-55
2024/02/07 07:26:17;;;;;;;2.33;0.70;;;;;;;10.32;56.49;96887.78;6265186;28;20210;-54
2024/02/07 07:29:20;;;;;;;2.07;0.87;;;;;;;10.45;55.71;96896.38;6260750;28;20747;-55
2024/02/07 07:32:22;;;;;;;3.07;1.07;;;;;;;10.64;54.61;96910.81;6267136;28;20196;-55
2024/02/07 07:35:24;;;;;;;0.63;0.60;;;;;;;10.72;54.80;96904.19;6241161;28;20413;-55
2024/02/07 07:38:27;;;;;;;1.30;0.50;;;;;;;10.77;54.07;96905.00;6254033;28;20204;-57
2024/02/07 07:41:29;;;;;;;1.93;0.90;;;;;;;10.78;53.27;96901.25;6264903;28;20193;-57
2024/02/07 07:44:38;;;;;;;2.30;1.37;;;;;;;10.80;54.25;96893.03;6255995;28;20630;-56
2024/02/07 07:47:40;;;;;;;2.50;0.70;;;;;;;10.86;53.39;96910.63;6266484;28;20191;-58
2024/02/07 07:50:43;;;;;;;2.60;0.80;;;;;;;10.83;54.70;96908.47;6259985;28;20214;-55
2024/02/07 07:53:48;;;;;;;2.00;0.60;;;;;;;11.00;52.67;96902.94;6262447;28;20191;-56
2024/02/07 07:56:51;;;;;;;0.93;0.60;;;;;;;11.03;53.29;96887.22;6260888;28;20195;-56
2024/02/07 07:59:53;;;;;;;3.10;0.93;;;;;;;10.96;52.75;96885.88;6258637;28;20225;-56
2024/02/07 08:02:55;;;;;;;1.73;0.70;;;;;;;11.05;53.02;96876.28;6235598;28;20201;-54
2024/02/07 08:05:58;;;;;;;1.33;0.67;;;;;;;10.95;54.82;96887.72;6263686;28;20711;-57
2024/02/07 08:09:00;;;;;;;1.93;0.67;;;;;;;11.04;53.04;96878.16;6260903;28;20202;-57
2024/02/07 08:12:02;;;;;;;2.30;0.80;;;;;;;11.10;54.42;96874.44;6264597;28;20650;-56
2024/02/07 08:15:05;;;;;;;4.47;0.60;;;;;;;11.30;52.94;96902.19;6256965;28;20559;-56
2024/02/07 08:18:08;;;;;;;2.27;0.80;;;;;;;11.33;52.42;96880.34;6261325;28;20198;-55
2024/02/07 08:21:10;;;;;;;1.20;0.60;;;;;;;11.36;52.79;96877.13;6262972;28;20199;-55
2024/02/07 08:24:13;;;;;;;1.17;0.67;;;;;;;11.48;51.56;96899.00;6260553;28;20242;-55
2024/02/07 08:27:15;;;;;;;1.23;0.50;;;;;;;11.48;53.18;96891.00;6266484;28;20207;-56
2024/02/07 08:30:17;;;;;;;1.90;0.50;;;;;;;11.45;51.36;96896.06;6254909;28;20227;-54
2024/02/07 08:33:19;;;;;;;1.10;0.60;;;;;;;11.52;51.21;96905.38;6266374;28;20210;-53
2024/02/07 08:36:22;;;;;;;1.10;0.60;;;;;;;11.58;49.96;96907.00;6261088;28;20202;-55
2024/02/07 08:39:24;;;;;;;3.17;0.60;;;;;;;11.67;50.80;96899.25;6257097;28;20270;-56
2024/02/07 08:42:27;;;;;;;0.77;0.67;;;;;;;11.65;50.06;96919.25;6255891;28;20679;-56
2024/02/07 08:45:29;;;;;;;2.10;0.60;;;;;;;11.68;49.94;96913.41;6249816;28;20211;-55
2024/02/07 08:48:31;;;;;;;1.90;0.60;;;;;;;11.60;51.54;96909.41;6265417;28;20256;-55
2024/02/07 08:51:33;;;;;;;0.60;0.50;;;;;;;11.69;50.16;96901.66;6262019;28;20207;-55
2024/02/07 08:54:35;;;;;;;1.60;0.40;;;;;;;11.61;50.47;96937.66;6258107;28;20289;-54
2024/02/07 08:57:41;;;;;;;0.50;0.43;;;;;;;11.48;50.66;96919.53;6266714;28;20208;-55
2024/02/07 09:00:43;;;;;;;0.63;0.30;;;;;;;11.41;50.92;96890.44;6256857;28;20822;-56
2024/02/07 09:03:45;;;;;;;0.80;0.50;;;;;;;11.48;50.81;96914.22;6259611;28;20210;-56
2024/02/07 09:06:47;;;;;;;0.87;0.60;;;;;;;11.45;50.27;96894.19;6252149;28;20285;-52
2024/02/07 09:09:50;;;;;;;2.60;0.40;;;;;;;11.54;50.33;96878.47;6257301;28;20695;-57
2024/02/07 09:12:53;;;;;;;0.73;0.30;;;;;;;11.49;51.58;96884.59;6265662;28;20218;-55
2024/02/07 09:15:55;;;;;;;1.27;0.53;;;;;;;11.49;52.96;96881.94;6259309;28;20895;-55
2024/02/07 09:19:00;;;;;;;2.43;0.77;;;;;;;11.47;50.48;96875.25;6251077;28;20337;-54
2024/02/07 09:22:03;;;;;;;1.13;0.50;;;;;;;11.49;50.88;96879.25;6262732;28;20206;-56
2024/02/07 09:25:06;;;;;;;0.80;0.50;;;;;;;11.60;49.91;96899.53;6253286;28;20606;-56
2024/02/07 09:28:08;;;;;;;0.90;0.60;;;;;;;11.58;49.09;96867.00;6257957;28;20256;-54
2024/02/07 09:31:10;;;;;;;1.70;0.60;;;;;;;11.59;50.67;96867.78;6254432;28;20565;-55
2024/02/07 09:34:13;;;;;;;1.30;0.60;;;;;;;11.67;50.09;96883.22;6256552;28;20229;-57
2024/02/07 09:37:15;;;;;;;0.70;0.50;;;;;;;11.79;50.10;96883.78;6263591;28;20202;-56
2024/02/07 09:40:19;;;;;;;1.90;0.63;;;;;;;11.97;48.91;96868.28;6256083;28;20204;-57
2024/02/07 09:43:23;;;;;;;2.27;0.60;;;;;;;11.81;49.43;96838.13;6261849;28;20203;-58
2024/02/07 09:46:28;;;;;;;0.60;0.50;;;;;;;11.89;49.65;96883.00;6259003;28;20231;-59
2024/02/07 09:49:31;;;;;;;1.03;0.70;;;;;;;11.84;49.25;96861.66;6247978;28;20564;-57
2024/02/07 09:52:35;;;;;;;1.67;0.60;;;;;;;11.86;48.79;96864.84;6260039;28;20211;-57
2024/02/07 09:55:37;;;;;;;1.10;0.53;;;;;;;11.80;48.94;96874.69;6248580;28;20681;-57
2024/02/07 09:58:42;;;;;;;2.73;0.57;;;;;;;11.69;49.70;96875.78;6251576;28;20240;-57
2024/02/07 10:01:45;;;;;;;1.10;0.60;;;;;;;11.70;50.83;96856.03;6253728;28;20288;-59
2024/02/07 10:04:54;;;;;;;3.37;0.67;;;;;;;11.69;49.81;96883.78;6233956;28;20309;-56
2024/02/07 10:07:56;;;;;;;2.63;0.73;;;;;;;11.69;51.12;96874.97;6254508;28;20187;-57
2024/02/07 10:10:59;;;;;;;3.00;0.67;;;;;;;11.62;50.79;96853.91;6260510;28;20602;-56
2024/02/07 10:14:03;;;;;;;1.83;1.00;;;;;;;11.72;49.84;96879.75;6256247;28;20218;-56
2024/02/07 10:17:05;;;;;;;1.20;0.63;;;;;;;11.72;49.82;96871.75;6241483;28;20199;-58
2024/02/07 10:20:11;;;;;;;1.23;0.70;;;;;;;11.78;48.96;96882.19;6234198;28;20199;-58
2024/02/07 10:23:13;;;;;;;3.10;0.87;;;;;;;11.61;49.83;96861.09;6257002;28;20195;-57
2024/02/07 10:26:24;;;;;;;1.93;0.60;;;;;;;11.63;49.58;96845.66;6244149;28;20210;-58
2024/02/07 10:29:26;;;;;;;3.63;0.90;;;;;;;11.62;49.58;96852.06;6259001;28;20206;-56
2024/02/07 10:32:29;;;;;;;1.30;0.53;;;;;;;11.67;50.73;96840.53;6257187;28;20221;-59
2024/02/07 10:35:31;;;;;;;0.87;0.60;;;;;;;11.61;49.90;96855.75;6267244;28;20275;-57
2024/02/07 10:38:35;;;;;;;4.30;0.90;;;;;;;11.54;50.09;96820.56;6266201;28;20736;-56
2024/02/07 10:41:37;;;;;;;0.73;0.50;;;;;;;11.65;49.17;96828.56;6257150;28;20270;-58
2024/02/07 10:44:39;;;;;;;1.47;0.67;;;;;;;11.61;49.95;96817.63;6268729;28;20544;-58
2024/02/07 10:47:42;;;;;;;0.70;0.70;;;;;;;11.61;49.46;96817.63;6262439;28;20322;-57
2024/02/07 10:50:45;;;;;;;2.07;0.73;;;;;;;11.60;49.58;96827.50;6262178;28;20207;-58
2024/02/07 10:53:48;;;;;;;1.20;0.80;;;;;;;11.54;49.60;96798.44;6265941;28;20930;-57
2024/02/07 10:56:55;;;;;;;0.53;0.50;;;;;;;11.60;49.93;96832.03;6259204;28;20203;-58
2024/02/07 11:00:02;;;;;;;2.00;0.70;;;;;;;11.48;49.63;96783.53;6258971;28;20194;-57
2024/02/07 11:03:04;;;;;;;2.73;0.90;;;;;;;11.67;48.71;96795.19;6255679;28;20712;-56
2024/02/07 11:06:07;;;;;;;1.40;0.87;;;;;;;11.65;49.03;96778.66;6258207;28;20198;-57
2024/02/07 11:09:11;;;;;;;4.73;0.97;;;;;;;11.82;48.68;96768.53;6259856;28;20585;-58
2024/02/07 11:12:15;;;;;;;2.63;0.90;;;;;;;11.80;47.98;96751.16;6253986;28;20208;-58
2024/02/07 11:15:17;;;;;;;3.77;0.80;;;;;;;11.84;48.28;96777.06;6263149;28;20223;-56
2024/02/07 11:18:20;;;;;;;1.57;0.70;;;;;;;11.96;47.49;96786.63;6261368;28;20209;-56
2024/02/07 11:21:27;;;;;;;5.60;1.10;;;;;;;12.01;48.41;96790.06;6265674;28;20660;-57
2024/02/07 11:24:30;;;;;;;1.57;0.93;;;;;;;11.92;48.22;96764.19;6265500;28;20231;-56
2024/02/07 11:27:32;;;;;;;2.07;0.80;;;;;;;11.99;48.03;96764.72;6256679;28;20198;-53
2024/02/07 11:30:35;;;;;;;4.17;1.03;;;;;;;12.05;47.27;96767.09;6239971;28;20279;-52
2024/02/07 11:33:38;;;;;;;3.40;1.17;;;;;;;12.12;47.36;96780.16;6254391;28;20204;-55
2024/02/07 11:36:40;;;;;;;1.87;0.93;;;;;;;12.13;46.94;96771.06;6250826;28;20583;-55
2024/02/07 11:39:42;;;;;;;3.30;1.10;;;;;;;12.24;47.22;96787.84;6261216;28;20237;-53
2024/02/07 11:42:45;;;;;;;5.57;0.97;;;;;;;12.20;46.95;96762.75;6261329;28;20226;-56
2024/02/07 11:45:50;;;;;;;2.73;1.03;;;;;;;12.18;47.33;96756.91;6260886;28;20191;-56
2024/02/07 11:48:53;;;;;;;2.63;1.00;;;;;;;12.20;46.68;96754.75;6260908;28;20248;-58
2024/02/07 11:51:59;;;;;;;1.17;0.70;;;;;;;12.19;47.59;96743.28;6240236;28;20252;-59
2024/02/07 11:55:16;;;;;;;3.27;0.80;;;;;;;12.15;46.61;96718.19;6258411;28;20192;-53
2024/02/07 11:58:18;;;;;;;2.27;0.80;;;;;;;12.20;47.19;96739.53;6262064;28;20297;-56
2024/02/07 12:01:21;;;;;;;3.67;1.10;;;;;;;12.11;46.21;96741.97;6255556;28;20199;-56
2024/02/07 12:04:24;;;;;;;2.67;0.80;;;;;;;12.17;47.03;96729.41;6259551;28;20214;-54
2024/02/07 12:07:28;;;;;;;1.20;0.80;;;;;;;12.18;47.88;96764.91;6264289;28;20192;-55
2024/02/07 12:10:30;;;;;;;2.87;1.00;;;;;;;12.25;46.39;96750.19;6253393;28;20219;-56
2024/02/07 12:13:34;;;;;;;3.40;0.90;;;;;;;12.23;46.43;96740.88;6260987;28;20199;-58
2024/02/07 12:16:36;;;;;;;3.43;1.03;;;;;;;12.39;45.21;96745.03;6232342;28;20213;-58
2024/02/07 12:19:43;;;;;;;3.80;0.87;;;;;;;12.29;46.51;96729.88;6257268;28;20202;-57
2024/02/07 12:22:46;;;;;;;4.10;0.90;;;;;;;12.33;45.86;96727.44;6261627;28;20188;-58
2024/02/07 12:25:59;;;;;;;2.00;0.97;;;;;;;12.46;45.27;96726.81;6262563;28;20232;-58
2024/02/07 12:29:06;;;;;;;3.43;0.80;;;;;;;12.49;45.10;96720.94;6260525;28;20191;-55
2024/02/07 12:32:08;;;;;;;1.67;0.73;;;;;;;12.49;45.40;96704.91;6252685;28;20203;-54
2024/02/07 12:35:11;;;;;;;2.07;1.00;;;;;;;12.53;44.81;96699.81;6253598;28;20196;-56
2024/02/07 12:38:14;;;;;;;4.73;1.30;;;;;;;12.57;46.28;96719.56;6264289;28;20206;-54
2024/02/07 12:41:19;;;;;;;2.73;0.83;;;;;;;12.54;44.88;96734.25;6257441;28;20191;-54
2024/02/07 12:44:21;;;;;;;2.93;0.90;;;;;;;12.51;44.70;96708.13;6259461;28;20196;-56
2024/02/07 12:47:24;;;;;;;2.03;0.90;;;;;;;12.51;46.16;96720.66;6258436;28;20575;-59
2024/02/07 12:50:26;;;;;;;1.27;1.07;;;;;;;12.57;45.43;96707.00;6257916;28;20605;-58
2024/02/07 12:53:28;;;;;;;1.17;0.70;;;;;;;12.45;45.70;96701.19;6235845;28;20202;-58
2024/02/07 12:56:30;;;;;;;2.37;0.90;;;;;;;12.56;45.27;96715.25;6259051;28;20271;-58
2024/02/07 12:59:37;;;;;;;2.13;0.80;;;;;;;12.47;45.99;96712.41;6237978;28;20192;-58
2024/02/07 13:02:49;;;;;;;2.57;1.23;;;;;;;12.39;45.86;96684.41;6265478;28;20724;-56
2024/02/07 13:05:51;;;;;;;2.30;0.97;;;;;;;12.73;44.24;96710.34;6239293;28;20754;-59
2024/02/07 13:08:53;;;;;;;2.93;0.80;;;;;;;12.58;45.17;96695.22;6247647;28;20318;-53
2024/02/07 13:11:55;;;;;;;2.17;0.90;;;;;;;12.61;45.29;96699.19;6258066;28;20216;-59
2024/02/07 13:14:58;;;;;;;1.60;0.77;;;;;;;12.57;45.70;96688.28;6256375;28;20191;-57
2024/02/07 13:18:02;;;;;;;3.43;0.90;;;;;;;12.71;44.57;96728.53;6254337;28;20202;-56
2024/02/07 13:21:05;;;;;;;1.37;0.80;;;;;;;12.64;45.49;96702.13;6254648;28;20672;-54
2024/02/07 13:24:16;;;;;;;3.93;1.00;;;;;;;12.78;45.09;96712.19;6260598;28;20810;-56
2024/02/07 13:27:18;;;;;;;1.33;0.97;;;;;;;12.70;45.79;96704.75;6253048;28;20230;-56
2024/02/07 13:30:20;;;;;;;1.77;1.10;;;;;;;12.89;44.06;96719.03;6252356;28;20645;-56
2024/02/07 13:33:22;;;;;;;3.80;0.93;;;;;;;12.83;44.69;96710.25;6262880;28;20184;-56
2024/02/07 13:36:24;;;;;;;2.50;0.70;;;;;;;12.79;44.78;96711.09;6238664;28;20195;-57
2024/02/07 13:39:26;;;;;;;1.70;1.40;;;;;;;12.74;44.44;96695.09;6258206;28;20198;-56
2024/02/07 13:42:29;;;;;;;2.87;0.77;;;;;;;12.85;44.43;96697.41;6255961;28;20200;-58
2024/02/07 13:45:31;;;;;;;2.03;0.70;;;;;;;12.81;44.12;96682.25;6255216;28;20346;-57
2024/02/07 13:48:33;;;;;;;3.53;0.97;;;;;;;12.84;44.67;96695.03;6251475;28;20602;-54
2024/02/07 13:51:37;;;;;;;1.40;0.93;;;;;;;12.94;44.21;96694.13;6253617;28;20222;-57
2024/02/07 13:54:39;;;;;;;1.33;0.70;;;;;;;12.97;44.83;96682.91;6259813;28;20248;-59
2024/02/07 13:57:41;;;;;;;1.97;1.10;;;;;;;13.05;45.93;96684.94;6256161;28;20565;-59
2024/02/07 14:00:44;;;;;;;3.37;0.83;;;;;;;13.01;45.09;96687.41;6258824;28;20204;-57
2024/02/07 14:03:46;;;;;;;1.70;0.77;;;;;;;13.05;43.99;96693.78;6265147;28;20191;-58
2024/02/07 14:06:49;;;;;;;3.87;0.90;;;;;;;13.14;43.70;96691.28;6255506;28;20198;-57
2024/02/07 14:09:51;;;;;;;1.40;0.80;;;;;;;12.90;44.05;96675.19;6255590;28;20199;-58
2024/02/07 14:12:53;;;;;;;4.13;1.00;;;;;;;12.86;43.87;96655.47;6252401;28;20215;-56
2024/02/07 14:15:55;;;;;;;1.30;0.73;;;;;;;12.79;45.22;96660.31;6257611;28;20214;-57
2024/02/07 14:25:54;;;;;;;2.97;0.93;;;;;;;12.77;45.24;96657.94;6227605;28;20221;-56
2024/02/07 14:28:56;;;;;;;3.13;0.80;;;;;;;12.80;44.30;96659.25;6230052;28;20200;-59
2024/02/07 14:31:58;;;;;;;3.50;0.90;;;;;;;12.74;44.37;96663.03;6230343;28;20215;-58
2024/02/07 14:35:01;;;;;;;1.57;0.70;;;;;;;12.77;44.91;96665.16;6230929;28;20188;-58
2024/02/07 14:38:04;;;;;;;1.33;0.77;;;;;;;12.93;44.01;96634.53;6230219;28;20193;-57
2024/02/07 14:41:06;;;;;;;2.30;0.70;;;;;;;12.84;43.84;96645.03;6237407;28;20219;-58
2024/02/07 14:44:08;;;;;;;1.77;0.70;;;;;;;12.81;45.01;96644.81;6234632;28;20573;-58
2024/02/07 14:47:13;;;;;;;1.57;0.73;;;;;;;12.69;44.12;96647.84;6225632;28;20193;-58
2024/02/07 14:50:15;;;;;;;0.90;0.77;;;;;;;12.74;44.24;96642.44;6235607;28;20584;-58
2024/02/07 14:53:19;;;;;;;3.03;1.00;;;;;;;12.71;44.05;96647.56;6237675;28;20286;-58
2024/02/07 14:56:21;;;;;;;2.23;0.80;;;;;;;12.65;44.90;96636.13;6239840;28;20727;-58
2024/02/07 14:59:23;;;;;;;3.37;0.77;;;;;;;12.64;44.92;96638.00;6238951;28;20228;-58
2024/02/07 15:02:25;;;;;;;1.17;0.50;;;;;;;12.74;44.11;96633.66;6236819;28;20665;-58
2024/02/07 15:05:27;;;;;;;0.83;0.50;;;;;;;12.55;44.82;96642.34;6233573;28;20207;-58
2024/02/07 15:08:30;;;;;;;2.93;0.70;;;;;;;12.55;45.33;96623.63;6231639;28;20200;-59
2024/02/07 15:11:32;;;;;;;0.83;0.40;;;;;;;12.49;45.73;96629.31;6230654;28;20366;-58
2024/02/07 15:14:34;;;;;;;1.90;0.70;;;;;;;12.51;44.86;96611.94;6231300;28;20189;-59
2024/02/07 15:17:38;;;;;;;1.93;0.70;;;;;;;12.69;44.14;96620.31;6231593;28;20645;-59
2024/02/07 15:20:41;;;;;;;2.30;0.67;;;;;;;12.74;44.30;96609.59;6236534;28;20741;-57
2024/02/07 15:23:43;;;;;;;3.27;0.70;;;;;;;12.74;43.68;96620.28;6233851;28;20228;-56
2024/02/07 15:26:45;;;;;;;3.00;0.70;;;;;;;12.66;43.95;96624.38;6238417;28;20237;-59
2024/02/07 15:29:47;;;;;;;1.27;0.67;;;;;;;12.70;43.53;96614.69;6238389;28;20837;-58
2024/02/07 15:32:50;;;;;;;1.73;0.60;;;;;;;12.65;44.65;96618.22;6231654;28;20216;-58
2024/02/07 15:35:53;;;;;;;1.10;0.83;;;;;;;12.77;43.97;96625.06;6242154;28;20199;-59
2024/02/07 15:38:55;;;;;;;1.70;0.50;;;;;;;12.91;43.74;96623.34;6235287;28;20210;-57
2024/02/07 15:41:57;;;;;;;1.23;0.60;;;;;;;12.71;45.44;96604.78;6220411;28;20224;-59